Time;durP1;ratioP1;P1;durP2;ratioP2;P2;SDS_P1;SDS_P2;PMS_P1;PMS_P2;Temp;Humidity;BMP_temperature;BMP_pressure;BME280_temperature;BME280_humidity;BME280_pressure;Samples;Min_cycle;Max_cycle;Signal;HPM_P1;HPM_P2
2023/03/30 00:02:29;;;;;;;5.05;2.20;;;15.30;65.40;;;;;;5013736;28;20486;-75
2023/03/30 00:05:01;;;;;;;8.88;2.55;;;15.20;65.80;;;;;;4997726;28;20033;-75
2023/03/30 00:07:30;;;;;;;8.88;2.20;;;15.30;66.10;;;;;;5002336;28;20061;-74
2023/03/30 00:09:57;;;;;;;5.82;2.13;;;15.20;66.60;;;;;;5013959;28;20400;-75
2023/03/30 00:12:23;;;;;;;5.38;2.00;;;15.10;67.10;;;;;;5013770;28;20037;-75
2023/03/30 00:14:49;;;;;;;7.28;2.08;;;15.10;67.30;;;;;;5017477;28;20098;-74
2023/03/30 00:17:16;;;;;;;6.55;2.33;;;15.10;67.80;;;;;;5022561;28;20402;-75
2023/03/30 00:19:42;;;;;;;4.53;2.10;;;15.10;67.70;;;;;;5014950;28;20042;-74
2023/03/30 00:22:08;;;;;;;8.38;2.10;;;15.00;68.00;;;;;;5017981;28;20053;-74
2023/03/30 00:24:35;;;;;;;5.38;2.03;;;15.00;68.20;;;;;;4994345;28;20030;-74
2023/03/30 00:27:01;;;;;;;4.95;2.00;;;14.90;68.60;;;;;;5012746;28;20068;-74
2023/03/30 00:29:27;;;;;;;5.63;2.08;;;14.80;68.90;;;;;;5011552;28;20032;-74
2023/03/30 00:31:53;;;;;;;5.22;1.80;;;14.70;69.20;;;;;;5013217;28;20038;-74
2023/03/30 00:34:19;;;;;;;5.47;2.20;;;14.60;69.30;;;;;;5009960;28;20021;-74
2023/03/30 00:36:45;;;;;;;6.50;2.13;;;14.60;69.40;;;;;;5014118;28;20053;-76
2023/03/30 00:39:12;;;;;;;6.15;2.17;;;14.50;69.90;;;;;;5016607;28;20033;-75
2023/03/30 00:41:38;;;;;;;5.80;2.20;;;14.50;69.60;;;;;;5006471;28;20029;-75
2023/03/30 00:44:45;;;;;;;5.15;2.35;;;14.50;69.40;;;;;;5008041;28;20026;-74
2023/03/30 00:47:11;;;;;;;5.53;2.17;;;14.40;69.20;;;;;;5012856;28;20127;-74
2023/03/30 00:49:38;;;;;;;6.55;2.35;;;14.40;69.30;;;;;;5007281;28;20951;-74
2023/03/30 00:52:04;;;;;;;7.80;2.35;;;14.40;69.50;;;;;;5020073;28;20034;-74
2023/03/30 00:54:30;;;;;;;5.75;2.10;;;14.40;69.70;;;;;;5011035;28;20075;-74
2023/03/30 00:56:55;;;;;;;5.10;2.33;;;14.30;69.70;;;;;;5007409;28;20343;-74
2023/03/30 00:59:21;;;;;;;6.50;1.80;;;14.30;69.90;;;;;;5029072;28;20037;-74
2023/03/30 01:01:49;;;;;;;6.90;2.17;;;14.30;70.10;;;;;;5005677;28;20477;-75
2023/03/30 01:04:15;;;;;;;7.45;2.45;;;14.20;70.20;;;;;;5006373;28;20034;-74
2023/03/30 01:06:45;;;;;;;5.13;2.08;;;14.20;70.40;;;;;;5004875;28;20030;-74
2023/03/30 01:09:12;;;;;;;5.78;2.28;;;14.10;70.60;;;;;;5009247;28;20034;-74
2023/03/30 01:11:39;;;;;;;5.10;2.40;;;14.10;70.80;;;;;;5008836;28;20371;-73
2023/03/30 01:14:09;;;;;;;7.70;2.78;;;13.90;70.90;;;;;;5008012;28;20030;-75
2023/03/30 01:16:35;;;;;;;4.72;2.05;;;13.90;71.10;;;;;;5015048;28;20066;-73
2023/03/30 01:19:03;;;;;;;6.32;2.38;;;13.90;71.10;;;;;;5008328;28;20180;-75
2023/03/30 01:21:28;;;;;;;8.57;2.80;;;13.90;70.90;;;;;;5011106;28;20049;-74
2023/03/30 01:24:20;;;;;;;9.90;3.15;;;13.90;70.90;;;;;;5007393;28;20022;-74
2023/03/30 01:27:01;;;;;;;10.00;3.42;;;13.90;70.70;;;;;;5003089;28;20187;-75
2023/03/30 01:29:53;;;;;;;9.38;3.33;;;13.80;70.50;;;;;;5009455;28;20425;-75
2023/03/30 01:32:41;;;;;;;9.02;3.72;;;13.90;70.40;;;;;;5007048;28;20034;-74
2023/03/30 01:35:27;;;;;;;7.80;2.85;;;13.90;70.30;;;;;;5008945;28;20121;-74
2023/03/30 01:38:19;;;;;;;7.05;2.80;;;13.90;70.00;;;;;;5021686;28;20034;-73
2023/03/30 01:41:08;;;;;;;7.80;3.00;;;14.00;69.40;;;;;;5008283;28;20030;-72
2023/03/30 01:43:41;;;;;;;6.70;2.90;;;14.10;69.20;;;;;;5012271;28;20030;-74
2023/03/30 01:46:18;;;;;;;7.60;2.78;;;14.10;68.80;;;;;;5006379;28;20034;-74
2023/03/30 01:48:52;;;;;;;6.57;2.30;;;14.10;68.80;;;;;;4998739;28;20123;-74
2023/03/30 01:51:34;;;;;;;7.68;2.70;;;14.10;68.70;;;;;;5004471;28;20552;-73
2023/03/30 01:54:22;;;;;;;7.20;2.97;;;14.20;68.60;;;;;;4995136;28;20041;-74
2023/03/30 01:56:58;;;;;;;7.45;2.58;;;14.20;68.70;;;;;;4994801;28;20041;-74
2023/03/30 01:59:30;;;;;;;7.10;2.50;;;14.10;68.70;;;;;;5007690;28;20041;-74
2023/03/30 02:02:02;;;;;;;10.07;3.08;;;14.20;68.90;;;;;;5016889;28;20048;-73
2023/03/30 02:04:32;;;;;;;7.28;3.00;;;14.10;68.90;;;;;;5007857;28;20025;-76
2023/03/30 02:07:02;;;;;;;11.63;3.00;;;14.10;69.10;;;;;;4994020;28;20041;-74
2023/03/30 02:09:30;;;;;;;8.93;2.95;;;14.10;69.30;;;;;;5004197;28;20482;-75
2023/03/30 02:11:56;;;;;;;7.47;2.60;;;14.10;69.50;;;;;;4990220;28;20037;-74
2023/03/30 02:14:32;;;;;;;9.95;3.03;;;14.10;69.70;;;;;;5006728;28;20230;-75
2023/03/30 02:17:17;;;;;;;7.85;2.83;;;14.10;70.00;;;;;;5010116;28;20042;-74
2023/03/30 02:19:46;;;;;;;8.73;2.75;;;14.00;70.20;;;;;;5009604;28;20099;-75
2023/03/30 02:22:17;;;;;;;5.90;2.50;;;14.00;70.40;;;;;;5006675;28;20034;-74
2023/03/30 02:24:45;;;;;;;6.82;2.88;;;14.00;70.60;;;;;;5007182;28;20050;-74
2023/03/30 02:27:11;;;;;;;6.13;2.55;;;13.90;71.00;;;;;;5007754;28;20034;-74
2023/03/30 02:29:40;;;;;;;7.65;3.00;;;13.90;71.30;;;;;;5009311;28;20026;-74
2023/03/30 02:32:22;;;;;;;7.20;2.75;;;13.90;71.40;;;;;;5008930;28;20044;-74
2023/03/30 02:35:18;;;;;;;6.70;3.10;;;13.90;71.50;;;;;;5013903;28;20450;-73
2023/03/30 02:38:05;;;;;;;7.85;2.58;;;13.80;71.50;;;;;;5005485;28;20041;-75
2023/03/30 02:41:07;;;;;;;9.40;3.17;;;13.90;71.60;;;;;;5012459;28;20073;-73
2023/03/30 02:43:59;;;;;;;8.57;2.72;;;13.80;71.50;;;;;;5006887;28;20386;-74
2023/03/30 02:47:03;;;;;;;9.15;3.00;;;13.80;71.50;;;;;;5010407;28;20081;-73
2023/03/30 02:49:35;;;;;;;6.10;2.45;;;13.80;71.20;;;;;;5011038;28;20054;-73
2023/03/30 02:52:32;;;;;;;9.02;2.67;;;13.90;71.10;;;;;;5004288;28;20069;-73
2023/03/30 02:55:05;;;;;;;8.07;2.85;;;13.90;71.50;;;;;;5003832;28;20034;-73
2023/03/30 02:57:56;;;;;;;7.93;2.53;;;14.00;71.90;;;;;;5009760;28;20405;-75
2023/03/30 03:00:35;;;;;;;8.82;2.65;;;14.10;72.20;;;;;;5000881;28;20151;-74
2023/03/30 03:03:16;;;;;;;10.55;2.67;;;14.10;72.50;;;;;;5011028;28;20034;-74
2023/03/30 03:05:42;;;;;;;8.32;2.72;;;14.20;72.70;;;;;;5017583;28;20045;-76
2023/03/30 03:08:08;;;;;;;9.43;2.92;;;14.30;72.90;;;;;;5012962;28;20096;-75
2023/03/30 03:10:35;;;;;;;10.27;2.80;;;14.30;73.00;;;;;;5008883;28;20121;-74
2023/03/30 03:13:01;;;;;;;9.93;3.45;;;14.30;73.00;;;;;;5007634;28;20032;-75
2023/03/30 03:15:27;;;;;;;9.25;2.83;;;14.30;73.30;;;;;;5010908;28;20029;-75
2023/03/30 03:17:53;;;;;;;8.50;3.00;;;14.30;73.60;;;;;;5011199;28;20034;-75
2023/03/30 03:20:19;;;;;;;9.25;2.75;;;14.30;73.80;;;;;;5017948;28;20025;-76
2023/03/30 03:22:45;;;;;;;8.75;3.13;;;14.30;74.00;;;;;;5002658;28;20037;-74
2023/03/30 03:25:10;;;;;;;10.88;2.97;;;14.30;74.20;;;;;;4997664;28;20026;-75
2023/03/30 03:27:36;;;;;;;9.65;3.03;;;14.30;75.40;;;;;;5013091;28;20497;-75
2023/03/30 03:30:02;;;;;;;8.68;2.83;;;14.20;76.30;;;;;;5020477;28;20510;-75
2023/03/30 03:32:28;;;;;;;9.35;2.88;;;14.20;77.00;;;;;;5013704;28;20034;-74
2023/03/30 03:34:54;;;;;;;9.45;2.88;;;14.10;77.60;;;;;;5011186;28;20416;-75
2023/03/30 03:37:20;;;;;;;8.95;2.90;;;14.10;78.60;;;;;;5010371;28;20457;-75
2023/03/30 03:39:45;;;;;;;9.45;2.95;;;13.90;79.50;;;;;;5016630;28;20034;-75
2023/03/30 03:42:11;;;;;;;11.90;3.38;;;13.80;79.90;;;;;;5010382;28;20037;-74
2023/03/30 03:44:39;;;;;;;11.70;3.08;;;13.70;80.20;;;;;;5013922;28;20116;-74
2023/03/30 03:47:05;;;;;;;10.95;2.90;;;13.70;80.30;;;;;;5015106;28;20156;-74
2023/03/30 03:49:31;;;;;;;11.23;3.33;;;13.70;80.40;;;;;;5015168;28;20038;-74
2023/03/30 03:51:56;;;;;;;12.02;3.13;;;13.70;80.60;;;;;;5011856;28;20095;-74
2023/03/30 03:54:22;;;;;;;9.88;3.28;;;13.70;80.80;;;;;;5010414;28;20874;-74
2023/03/30 03:56:48;;;;;;;7.10;2.60;;;13.70;80.80;;;;;;5012736;28;20113;-74
2023/03/30 03:59:14;;;;;;;11.48;3.25;;;13.70;81.00;;;;;;5010593;28;20045;-74
2023/03/30 04:01:39;;;;;;;10.00;3.20;;;13.70;81.30;;;;;;5009353;28;20037;-76
2023/03/30 04:04:05;;;;;;;9.63;3.13;;;13.70;81.50;;;;;;5007601;28;20099;-75
2023/03/30 04:06:31;;;;;;;8.63;2.63;;;13.60;81.60;;;;;;5011164;28;20045;-74
2023/03/30 04:08:56;;;;;;;8.95;2.58;;;13.70;81.70;;;;;;5003302;28;20091;-74
2023/03/30 04:11:22;;;;;;;8.50;2.88;;;13.60;82.00;;;;;;5006327;28;20102;-75
2023/03/30 04:13:48;;;;;;;12.60;3.22;;;13.60;82.50;;;;;;5016727;28;20848;-75
2023/03/30 04:16:14;;;;;;;9.98;3.00;;;13.60;83.40;;;;;;5010119;28;20038;-74
2023/03/30 04:18:40;;;;;;;9.10;3.10;;;13.60;84.10;;;;;;5015938;28;20048;-75
2023/03/30 04:21:11;;;;;;;9.50;3.20;;;13.30;85.40;;;;;;5011172;28;20037;-75
2023/03/30 04:23:38;;;;;;;9.35;3.25;;;13.20;86.30;;;;;;5012090;28;20026;-75
2023/03/30 04:26:06;;;;;;;10.65;3.35;;;13.10;86.60;;;;;;5005901;28;20034;-75
2023/03/30 04:28:33;;;;;;;8.90;3.03;;;13.10;86.80;;;;;;5000526;28;20496;-74
2023/03/30 04:31:01;;;;;;;10.32;3.15;;;13.10;86.90;;;;;;5016411;28;20029;-74
2023/03/30 04:33:27;;;;;;;8.93;3.25;;;13.10;86.90;;;;;;5011603;28;20030;-73
2023/03/30 04:35:53;;;;;;;7.20;2.92;;;13.00;86.80;;;;;;5008811;28;20069;-75
2023/03/30 04:38:21;;;;;;;7.75;3.08;;;13.00;86.70;;;;;;5009179;28;20038;-74
2023/03/30 04:40:48;;;;;;;9.32;2.78;;;12.90;86.40;;;;;;5007065;28;20022;-75
2023/03/30 04:43:18;;;;;;;9.73;3.45;;;12.90;86.30;;;;;;5009138;28;20121;-75
2023/03/30 04:45:51;;;;;;;12.45;4.07;;;12.90;86.10;;;;;;5013946;28;20390;-74
2023/03/30 04:48:18;;;;;;;11.50;3.10;;;12.90;85.80;;;;;;5009345;28;20136;-74
2023/03/30 04:50:45;;;;;;;13.50;3.05;;;12.90;85.60;;;;;;4998051;28;20116;-75
2023/03/30 04:53:13;;;;;;;12.13;3.25;;;12.80;85.60;;;;;;5010380;28;20030;-74
2023/03/30 04:55:39;;;;;;;13.52;3.15;;;12.80;85.40;;;;;;5011158;28;20478;-75
2023/03/30 04:58:05;;;;;;;13.30;3.22;;;12.80;85.30;;;;;;5009487;28;20022;-75
2023/03/30 05:00:32;;;;;;;14.77;3.40;;;12.80;85.20;;;;;;5004110;28;20025;-75
2023/03/30 05:02:58;;;;;;;13.48;3.88;;;12.80;85.10;;;;;;5010894;28;20091;-73
2023/03/30 05:05:24;;;;;;;14.18;3.30;;;12.80;85.00;;;;;;5016544;28;20034;-73
2023/03/30 05:07:50;;;;;;;15.63;4.03;;;12.80;85.10;;;;;;4994770;28;20041;-73
2023/03/30 05:10:16;;;;;;;17.50;3.17;;;12.90;84.90;;;;;;5007597;28;20059;-75
2023/03/30 05:12:42;;;;;;;18.13;3.63;;;12.80;84.70;;;;;;5010354;28;20034;-74
2023/03/30 05:15:08;;;;;;;20.90;4.55;;;12.80;84.40;;;;;;5001478;28;20040;-75
2023/03/30 05:17:34;;;;;;;13.77;3.28;;;12.70;84.20;;;;;;4999842;28;20034;-75
2023/03/30 05:20:00;;;;;;;19.58;3.65;;;12.60;83.70;;;;;;5007654;28;20056;-75
2023/03/30 05:22:25;;;;;;;18.35;3.63;;;12.60;83.70;;;;;;5006372;28;20034;-73
2023/03/30 05:24:51;;;;;;;17.27;4.15;;;12.70;83.50;;;;;;5009027;28;20029;-75
2023/03/30 05:27:18;;;;;;;21.27;4.22;;;12.60;83.50;;;;;;5007005;28;20098;-74
2023/03/30 05:29:44;;;;;;;18.08;3.90;;;12.60;83.30;;;;;;5004679;28;20069;-75
2023/03/30 05:32:09;;;;;;;20.75;4.35;;;12.60;83.30;;;;;;5005009;28;20080;-74
2023/03/30 05:34:35;;;;;;;17.00;3.72;;;12.60;83.20;;;;;;5010855;28;20029;-74
2023/03/30 05:37:01;;;;;;;19.45;4.35;;;12.60;83.20;;;;;;5006448;28;20079;-76
2023/03/30 05:39:27;;;;;;;23.40;4.43;;;12.60;83.30;;;;;;5001089;28;20092;-76
2023/03/30 05:41:53;;;;;;;19.73;4.43;;;12.60;83.20;;;;;;5003592;28;20045;-75
2023/03/30 05:44:18;;;;;;;23.90;4.80;;;12.60;83.30;;;;;;5000577;28;20065;-76
2023/03/30 05:46:44;;;;;;;17.70;4.43;;;12.60;82.90;;;;;;5019202;28;20061;-76
2023/03/30 05:49:10;;;;;;;22.80;4.57;;;12.60;82.80;;;;;;4996048;28;20547;-75
2023/03/30 05:51:35;;;;;;;18.40;4.43;;;12.60;83.00;;;;;;5008654;28;20034;-75
2023/03/30 05:54:02;;;;;;;19.05;3.95;;;12.60;83.00;;;;;;5008918;28;20030;-74
2023/03/30 05:56:28;;;;;;;23.98;4.45;;;12.60;83.00;;;;;;5019933;28;20084;-75
2023/03/30 05:58:54;;;;;;;18.70;4.68;;;12.60;82.70;;;;;;5004313;28;20034;-74
2023/03/30 06:01:20;;;;;;;19.10;4.00;;;12.70;82.70;;;;;;5002722;28;20033;-75
2023/03/30 06:03:46;;;;;;;21.92;4.70;;;12.60;82.40;;;;;;5000851;28;20122;-74
2023/03/30 06:06:13;;;;;;;21.58;4.25;;;12.70;82.30;;;;;;5005520;28;20042;-76
2023/03/30 06:08:40;;;;;;;21.75;3.92;;;12.70;82.00;;;;;;5010070;28;20048;-75
2023/03/30 06:11:06;;;;;;;26.42;5.03;;;12.90;81.90;;;;;;5003267;28;20038;-74
2023/03/30 06:13:32;;;;;;;21.00;4.60;;;13.00;81.30;;;;;;5006052;28;20056;-75
2023/03/30 06:15:58;;;;;;;27.33;5.28;;;13.00;81.00;;;;;;5007083;28;20034;-76
2023/03/30 06:18:24;;;;;;;25.67;5.47;;;13.00;80.90;;;;;;5007029;28;20052;-76
2023/03/30 06:20:51;;;;;;;20.67;4.65;;;13.00;81.00;;;;;;5004788;28;20033;-74
2023/03/30 06:23:16;;;;;;;28.35;5.25;;;12.90;81.70;;;;;;5006992;28;20053;-75
2023/03/30 06:25:51;;;;;;;23.85;5.32;;;12.80;82.60;;;;;;4989345;28;20056;-76
2023/03/30 06:28:19;;;;;;;28.42;4.90;;;12.80;83.10;;;;;;5008978;28;20045;-76
2023/03/30 06:30:47;;;;;;;22.00;4.85;;;12.60;83.50;;;;;;5006270;28;20076;-74
2023/03/30 06:33:14;;;;;;;25.60;5.20;;;12.60;83.80;;;;;;5012908;28;20032;-76
2023/03/30 06:35:45;;;;;;;24.35;4.90;;;12.60;84.00;;;;;;5005807;28;20034;-76
2023/03/30 06:38:11;;;;;;;19.77;4.57;;;12.60;83.70;;;;;;5007933;28;20029;-74
2023/03/30 06:40:36;;;;;;;25.02;4.93;;;12.60;83.40;;;;;;5011127;28;20398;-75
2023/03/30 06:43:02;;;;;;;20.80;4.80;;;12.60;83.20;;;;;;5005145;28;20026;-74
2023/03/30 06:45:28;;;;;;;23.52;5.78;;;12.60;83.00;;;;;;5003364;28;20037;-73
2023/03/30 06:47:54;;;;;;;24.00;4.63;;;12.70;83.10;;;;;;5002462;28;20065;-74
2023/03/30 06:50:20;;;;;;;27.40;5.70;;;12.70;83.10;;;;;;5004243;28;20485;-73
2023/03/30 06:52:47;;;;;;;26.63;5.50;;;12.80;83.10;;;;;;5011303;28;20048;-73
2023/03/30 06:55:13;;;;;;;24.83;4.93;;;12.80;83.00;;;;;;5011413;28;20026;-73
2023/03/30 06:57:39;;;;;;;19.90;4.30;;;12.80;82.90;;;;;;4989004;28;20041;-73
2023/03/30 07:00:11;;;;;;;25.65;5.55;;;12.80;83.00;;;;;;5005790;28;20390;-74
2023/03/30 07:02:37;;;;;;;22.98;5.03;;;12.90;82.80;;;;;;5003162;28;20034;-73
2023/03/30 07:05:05;;;;;;;23.70;5.47;;;13.00;82.50;;;;;;5003246;28;20120;-73
2023/03/30 07:07:30;;;;;;;23.80;5.68;;;13.10;82.30;;;;;;5010358;28;20030;-74
2023/03/30 07:09:56;;;;;;;22.65;4.70;;;13.30;81.60;;;;;;5005406;28;20106;-74
2023/03/30 07:12:22;;;;;;;21.90;5.40;;;13.30;80.90;;;;;;5004324;28;20045;-73
2023/03/30 07:14:47;;;;;;;22.25;5.22;;;13.30;80.70;;;;;;5005210;28;20105;-73
2023/03/30 07:17:13;;;;;;;28.02;6.53;;;13.30;80.60;;;;;;5003362;28;20050;-73
2023/03/30 07:19:39;;;;;;;24.40;5.18;;;13.30;80.70;;;;;;4990890;28;20030;-73
2023/03/30 07:22:05;;;;;;;23.92;5.15;;;13.30;80.70;;;;;;5006235;28;20152;-74
2023/03/30 07:24:32;;;;;;;34.72;5.90;;;13.20;80.80;;;;;;5014421;28;20037;-74
2023/03/30 07:26:58;;;;;;;23.70;4.80;;;13.20;80.50;;;;;;5008383;28;20049;-73
2023/03/30 07:29:27;;;;;;;24.00;5.05;;;13.10;80.80;;;;;;5007581;28;20112;-73
2023/03/30 07:31:55;;;;;;;26.60;5.63;;;13.10;80.70;;;;;;5009649;28;20038;-73
2023/03/30 07:34:21;;;;;;;23.45;5.10;;;13.10;80.70;;;;;;5016493;28;20037;-72
2023/03/30 07:36:47;;;;;;;25.77;5.45;;;13.20;80.00;;;;;;5006022;28;20025;-74
2023/03/30 07:39:13;;;;;;;29.00;6.20;;;13.30;79.90;;;;;;4992187;28;20038;-73
2023/03/30 07:41:39;;;;;;;26.25;5.18;;;13.30;79.50;;;;;;5014611;28;20087;-72
2023/03/30 07:44:05;;;;;;;27.50;6.00;;;13.40;79.60;;;;;;5010886;28;20021;-74
2023/03/30 07:46:31;;;;;;;24.13;5.43;;;13.50;79.00;;;;;;5008411;28;20113;-72
2023/03/30 07:48:57;;;;;;;27.45;5.05;;;13.50;78.30;;;;;;5018772;28;20136;-72
2023/03/30 07:51:23;;;;;;;30.13;5.22;;;13.60;78.20;;;;;;5009235;28;20026;-72
2023/03/30 07:53:49;;;;;;;24.77;4.82;;;13.80;77.80;;;;;;5011790;28;20096;-74
2023/03/30 07:56:15;;;;;;;25.00;5.53;;;14.10;76.50;;;;;;5015138;28;20082;-74
2023/03/30 07:58:40;;;;;;;27.30;5.63;;;14.20;76.50;;;;;;5005341;28;20042;-73
2023/03/30 08:01:07;;;;;;;22.40;5.38;;;14.40;76.20;;;;;;5007447;28;20080;-73
2023/03/30 08:03:32;;;;;;;20.67;4.88;;;14.50;74.90;;;;;;5007425;28;20083;-74
2023/03/30 08:06:02;;;;;;;24.10;5.38;;;14.40;75.60;;;;;;5012007;28;20038;-74
2023/03/30 08:08:29;;;;;;;23.30;4.95;;;14.40;75.30;;;;;;5016137;28;20049;-74
2023/03/30 08:10:55;;;;;;;25.20;6.07;;;14.50;75.10;;;;;;5009595;28;20573;-73
2023/03/30 08:13:21;;;;;;;25.90;5.68;;;14.70;73.90;;;;;;5014026;28;20067;-73
2023/03/30 08:15:47;;;;;;;20.77;4.50;;;15.00;74.00;;;;;;5008367;28;20025;-73
2023/03/30 08:18:13;;;;;;;22.92;5.25;;;15.30;72.10;;;;;;5013042;28;20112;-74
2023/03/30 08:20:40;;;;;;;24.20;4.40;;;15.30;71.80;;;;;;5008746;28;20025;-74
2023/03/30 08:23:08;;;;;;;25.15;5.53;;;15.30;71.90;;;;;;5011017;28;20040;-74
2023/03/30 08:25:34;;;;;;;28.02;5.82;;;15.20;71.60;;;;;;5015341;28;20033;-74
2023/03/30 08:28:00;;;;;;;23.58;5.00;;;15.00;72.50;;;;;;5011473;28;20084;-75
2023/03/30 08:30:27;;;;;;;24.95;4.97;;;14.90;72.80;;;;;;5014194;28;20025;-74
2023/03/30 08:32:53;;;;;;;24.95;5.30;;;14.70;73.10;;;;;;5012505;28;20440;-74
2023/03/30 08:35:20;;;;;;;24.13;4.88;;;14.50;74.10;;;;;;4995316;28;20108;-73
2023/03/30 08:37:46;;;;;;;26.40;5.47;;;14.60;74.50;;;;;;5009456;28;20021;-73
2023/03/30 08:40:14;;;;;;;23.58;4.43;;;14.60;74.80;;;;;;5015724;28;20057;-73
2023/03/30 08:42:55;;;;;;;18.48;5.32;;;14.60;74.40;;;;;;4990779;28;20069;-73
2023/03/30 08:45:21;;;;;;;20.17;4.38;;;14.70;74.30;;;;;;5010085;28;20026;-74
2023/03/30 08:47:49;;;;;;;17.70;4.18;;;14.90;73.60;;;;;;5016997;28;20526;-74
2023/03/30 08:50:29;;;;;;;20.73;3.75;;;15.10;72.70;;;;;;5023334;28;20059;-73
2023/03/30 08:52:55;;;;;;;21.90;4.32;;;15.10;72.80;;;;;;5021590;28;20037;-73
2023/03/30 08:55:27;;;;;;;21.23;4.53;;;15.00;73.10;;;;;;5010144;28;20494;-73
2023/03/30 08:58:17;;;;;;;22.60;4.03;;;14.90;73.50;;;;;;5006102;28;20030;-73
2023/03/30 09:00:56;;;;;;;20.63;4.18;;;14.90;74.00;;;;;;5000933;28;20033;-74
2023/03/30 09:03:46;;;;;;;17.98;3.28;;;14.70;74.00;;;;;;5008874;28;20022;-73
2023/03/30 09:06:33;;;;;;;16.23;3.83;;;14.60;75.50;;;;;;5004113;28;20037;-72
2023/03/30 09:09:00;;;;;;;15.40;3.30;;;14.90;75.40;;;;;;5006599;28;20466;-73
2023/03/30 09:11:36;;;;;;;15.55;3.72;;;15.00;75.70;;;;;;5008768;28;20041;-72
2023/03/30 09:14:04;;;;;;;17.95;4.05;;;15.00;75.40;;;;;;5005819;28;20071;-74
2023/03/30 09:16:55;;;;;;;16.02;3.80;;;15.10;73.50;;;;;;5008525;28;20037;-75
2023/03/30 09:19:33;;;;;;;14.80;2.90;;;15.10;74.50;;;;;;4997868;28;20462;-74
2023/03/30 09:22:04;;;;;;;16.05;3.35;;;15.00;73.10;;;;;;5014585;28;20089;-74
2023/03/30 09:24:30;;;;;;;13.38;3.15;;;15.10;73.90;;;;;;5011276;28;20018;-74
2023/03/30 09:27:27;;;;;;;11.90;3.05;;;15.30;73.10;;;;;;5003576;28;20030;-74
2023/03/30 09:30:02;;;;;;;15.50;2.75;;;15.50;72.20;;;;;;4994257;28;20109;-74
2023/03/30 09:32:31;;;;;;;14.63;3.63;;;15.50;71.40;;;;;;5009882;28;20601;-74
2023/03/30 09:35:07;;;;;;;17.15;3.33;;;15.10;72.80;;;;;;5005808;28;20116;-73
2023/03/30 09:37:34;;;;;;;15.05;3.50;;;15.00;75.80;;;;;;5005189;28;20029;-74
2023/03/30 09:40:18;;;;;;;16.77;3.53;;;14.60;77.10;;;;;;5012080;28;20030;-74
2023/03/30 09:42:54;;;;;;;12.93;3.10;;;14.60;79.20;;;;;;5004552;28;20112;-75
2023/03/30 09:45:26;;;;;;;20.45;4.90;;;14.90;80.40;;;;;;5005878;28;20052;-75
2023/03/30 09:47:52;;;;;;;18.30;3.90;;;15.20;77.60;;;;;;5000603;28;20050;-77
2023/03/30 09:50:25;;;;;;;15.00;3.67;;;15.10;76.10;;;;;;5012699;28;20036;-74
2023/03/30 09:53:03;;;;;;;19.40;3.85;;;15.30;76.00;;;;;;5004287;28;20433;-77
2023/03/30 09:55:36;;;;;;;19.15;4.45;;;15.80;75.40;;;;;;5009210;28;20041;-74
2023/03/30 09:58:25;;;;;;;17.58;4.07;;;16.00;74.70;;;;;;5002256;28;20410;-74
2023/03/30 10:01:05;;;;;;;19.20;4.70;;;16.20;74.10;;;;;;4983245;28;20600;-74
2023/03/30 10:03:31;;;;;;;19.95;4.30;;;15.90;72.80;;;;;;5007152;28;20030;-74
2023/03/30 10:06:11;;;;;;;20.85;4.43;;;15.70;73.40;;;;;;5013480;28;20057;-73
2023/03/30 10:09:05;;;;;;;22.13;4.70;;;15.40;73.50;;;;;;5007368;28;20038;-74
2023/03/30 10:11:42;;;;;;;21.17;4.55;;;15.10;74.60;;;;;;5001392;28;20053;-74
2023/03/30 10:14:29;;;;;;;22.42;5.28;;;14.90;75.00;;;;;;5006398;28;20093;-73
2023/03/30 10:16:56;;;;;;;23.27;4.38;;;14.90;75.60;;;;;;5000216;28;20042;-73
2023/03/30 10:19:23;;;;;;;27.67;5.68;;;14.70;75.00;;;;;;5002508;28;20467;-74
2023/03/30 10:21:56;;;;;;;24.02;4.75;;;14.90;75.90;;;;;;4998587;28;20615;-75
2023/03/30 10:24:27;;;;;;;18.40;4.38;;;15.00;74.40;;;;;;4993050;28;20019;-74
2023/03/30 10:27:08;;;;;;;19.88;4.75;;;14.80;74.30;;;;;;4992021;28;20042;-76
2023/03/30 10:29:34;;;;;;;23.80;5.68;;;15.10;73.50;;;;;;4993756;28;20033;-74
2023/03/30 10:32:26;;;;;;;24.83;4.43;;;15.50;72.10;;;;;;4996989;28;20049;-75
2023/03/30 10:35:02;;;;;;;17.08;4.97;;;15.80;70.90;;;;;;4988419;28;20030;-75
2023/03/30 10:37:36;;;;;;;23.35;4.90;;;16.10;69.70;;;;;;4976505;28;20055;-75
2023/03/30 10:40:09;;;;;;;;;;;16.10;69.90;;;;;;4996332;28;20092;-76
2023/03/30 10:42:36;;;;;;;20.30;5.15;;;15.80;69.90;;;;;;4994947;28;20728;-76
2023/03/30 10:45:04;;;;;;;21.95;5.03;;;15.80;70.10;;;;;;4992829;28;20055;-75
2023/03/30 10:47:39;;;;;;;23.83;4.75;;;15.90;70.70;;;;;;5013370;28;20058;-73
2023/03/30 10:50:34;;;;;;;24.70;5.53;;;15.80;70.60;;;;;;4979748;28;20266;-75
2023/03/30 10:53:03;;;;;;;19.85;5.00;;;15.90;69.70;;;;;;4992553;28;20070;-74
2023/03/30 10:55:53;;;;;;;25.92;4.85;;;16.10;68.80;;;;;;4996779;28;20030;-74
2023/03/30 10:58:42;;;;;;;21.48;4.65;;;16.10;68.90;;;;;;4974774;28;20475;-74
2023/03/30 11:01:15;;;;;;;22.27;5.45;;;16.30;67.70;;;;;;4994237;28;20046;-75
2023/03/30 11:03:47;;;;;;;24.70;5.03;;;16.80;67.20;;;;;;4993518;28;20033;-74
2023/03/30 11:06:31;;;;;;;24.05;5.95;;;17.30;65.90;;;;;;4992112;28;20044;-75
2023/03/30 11:09:02;;;;;;;17.55;3.75;;;17.70;64.30;;;;;;4994513;28;20309;-73
2023/03/30 11:11:36;;;;;;;18.35;4.20;;;17.60;62.60;;;;;;4990362;28;20060;-74
2023/03/30 11:14:06;;;;;;;;;;;17.80;63.50;;;;;;4999461;28;20036;-73
2023/03/30 11:16:51;;;;;;;20.98;5.22;;;17.60;63.20;;;;;;4992612;28;19935;-73
2023/03/30 11:19:22;;;;;;;;;;;17.60;60.80;;;;;;4993875;28;20057;-76
2023/03/30 11:22:10;;;;;;;21.77;4.50;;;16.90;62.40;;;;;;4993527;28;19957;-75
2023/03/30 11:24:37;;;;;;;23.50;4.90;;;16.40;64.40;;;;;;4996192;28;20033;-77
2023/03/30 11:27:11;;;;;;;23.98;5.25;;;16.10;67.90;;;;;;4994061;28;20034;-75
2023/03/30 11:30:01;;;;;;;21.80;4.95;;;15.90;70.60;;;;;;4999673;28;20113;-75
2023/03/30 11:32:51;;;;;;;27.88;5.47;;;16.00;71.40;;;;;;4984563;28;20057;-74
2023/03/30 11:35:28;;;;;;;18.88;3.92;;;16.00;71.50;;;;;;4997445;28;20430;-74
2023/03/30 11:38:23;;;;;;;21.60;3.80;;;16.20;68.80;;;;;;4996874;28;20124;-76
2023/03/30 11:40:55;;;;;;;;;;;16.60;67.20;;;;;;4996823;28;20042;-75
2023/03/30 11:43:22;;;;;;;23.83;4.15;;;16.70;65.70;;;;;;4997677;28;19918;-76
2023/03/30 11:46:07;;;;;;;24.40;4.90;;;16.80;65.20;;;;;;4994701;28;20096;-74
2023/03/30 11:48:56;;;;;;;21.38;4.95;;;16.80;65.60;;;;;;4998088;28;20054;-75
2023/03/30 11:51:48;;;;;;;22.88;4.43;;;16.80;65.30;;;;;;4995562;28;20974;-75
2023/03/30 11:54:33;;;;;;;23.75;4.55;;;16.80;64.70;;;;;;5009135;28;20084;-73
2023/03/30 11:57:17;;;;;;;22.60;4.10;;;16.80;65.10;;;;;;5019634;28;20385;-75
2023/03/30 12:00:22;;;;;;;23.83;5.10;;;16.70;64.90;;;;;;5002433;28;20038;-74
2023/03/30 12:03:20;;;;;;;33.08;5.18;;;16.50;65.90;;;;;;5000404;28;20064;-75
2023/03/30 12:06:06;;;;;;;29.98;4.60;;;16.00;67.40;;;;;;5009639;28;20036;-75
2023/03/30 12:09:17;;;;;;;22.38;4.82;;;15.60;71.40;;;;;;5003467;28;20034;-75
2023/03/30 12:11:55;;;;;;;25.42;5.60;;;14.80;76.40;;;;;;5009393;28;20100;-76
2023/03/30 12:14:48;;;;;;;22.50;4.55;;;14.60;80.40;;;;;;5005255;28;20022;-76
2023/03/30 12:17:29;;;;;;;29.50;4.95;;;14.90;80.60;;;;;;5006548;28;20042;-75
2023/03/30 12:20:10;;;;;;;22.98;4.82;;;15.10;80.20;;;;;;5004250;28;20030;-76
2023/03/30 12:22:39;;;;;;;22.92;5.38;;;15.50;79.80;;;;;;5006473;28;20044;-75
2023/03/30 12:25:35;;;;;;;16.45;3.53;;;15.70;78.40;;;;;;5007646;28;20033;-75
2023/03/30 12:28:08;;;;;;;16.27;3.83;;;15.80;73.90;;;;;;5007500;28;20111;-75
2023/03/30 12:30:53;;;;;;;13.38;2.47;;;16.20;72.70;;;;;;5007137;28;20061;-75
2023/03/30 12:33:36;;;;;;;13.00;2.67;;;16.00;69.90;;;;;;5003843;28;20041;-75
2023/03/30 12:36:33;;;;;;;14.88;3.38;;;16.00;70.70;;;;;;5007645;28;20057;-75
2023/03/30 12:39:01;;;;;;;16.08;3.10;;;16.20;69.90;;;;;;5012673;28;20116;-74
2023/03/30 12:41:37;;;;;;;13.73;3.55;;;16.40;70.30;;;;;;5012386;28;20125;-74
2023/03/30 12:44:13;;;;;;;11.40;2.80;;;16.40;69.90;;;;;;5016539;28;20033;-75
2023/03/30 12:46:42;;;;;;;16.20;3.08;;;16.60;70.90;;;;;;5017430;28;20087;-75
2023/03/30 12:49:22;;;;;;;12.98;3.00;;;16.90;69.40;;;;;;5013961;28;20401;-74
2023/03/30 12:51:50;;;;;;;14.90;3.40;;;16.70;68.30;;;;;;5007769;28;20041;-74
2023/03/30 12:54:55;;;;;;;15.55;3.20;;;16.70;68.60;;;;;;5017568;28;20026;-75
2023/03/30 12:57:35;;;;;;;17.40;3.20;;;16.60;68.30;;;;;;4994357;28;20468;-75
2023/03/30 13:00:27;;;;;;;13.88;3.00;;;16.70;68.60;;;;;;5013356;28;20080;-76
2023/03/30 13:03:11;;;;;;;13.80;3.25;;;16.60;68.30;;;;;;4994687;28;20038;-79
2023/03/30 13:05:42;;;;;;;15.80;3.57;;;17.10;66.90;;;;;;5011485;28;20034;-77
2023/03/30 13:08:22;;;;;;;13.55;3.17;;;17.00;67.00;;;;;;5008793;28;20600;-75